Time;durP1;ratioP1;P1;durP2;ratioP2;P2;SDS_P1;SDS_P2;PMS_P1;PMS_P2;Temp;Humidity;BMP_temperature;BMP_pressure;BME280_temperature;BME280_humidity;BME280_pressure;Samples;Min_cycle;Max_cycle;Signal;HPM_P1;HPM_P2
2022/11/12 00:00:35;;;;;;;3.20;1.60;;;12.00;72.50;;;;;;2261971;56;21044;-73
2022/11/12 00:03:01;;;;;;;2.97;1.62;;;12.00;72.50;;;;;;2261779;56;20981;-74
2022/11/12 00:05:28;;;;;;;3.42;1.83;;;12.00;72.60;;;;;;2261270;56;21504;-74
2022/11/12 00:07:54;;;;;;;2.85;1.62;;;12.00;72.60;;;;;;2356493;55;20964;-74
2022/11/12 00:10:21;;;;;;;2.60;1.45;;;11.90;72.50;;;;;;2261459;56;21436;-73
2022/11/12 00:12:47;;;;;;;7.72;2.20;;;11.90;72.50;;;;;;2490395;55;21001;-74
2022/11/12 00:15:13;;;;;;;3.80;2.40;;;11.90;72.60;;;;;;2261465;56;21254;-73
2022/11/12 00:17:39;;;;;;;3.87;1.70;;;11.90;72.80;;;;;;2362433;55;21490;-74
2022/11/12 00:20:07;;;;;;;4.85;2.53;;;11.80;72.90;;;;;;2261418;56;21039;-73
2022/11/12 00:22:33;;;;;;;8.32;3.05;;;11.90;73.00;;;;;;2309158;55;21427;-73
2022/11/12 00:25:00;;;;;;;4.25;2.28;;;11.90;73.10;;;;;;2261845;56;21253;-73
2022/11/12 00:27:27;;;;;;;4.12;2.33;;;11.90;73.20;;;;;;2316375;55;20928;-73
2022/11/12 00:33:22;;;;;;;2.90;1.50;;;11.90;72.90;;;;;;2326379;55;21465;-72
2022/11/12 00:35:48;;;;;;;2.90;1.48;;;11.90;73.10;;;;;;2328182;55;21834;-73
2022/11/12 00:38:15;;;;;;;3.75;2.00;;;11.80;72.90;;;;;;2346061;55;21818;-74
2022/11/12 00:40:41;;;;;;;3.03;1.73;;;11.80;72.80;;;;;;2490735;55;20995;-73
2022/11/12 00:43:08;;;;;;;2.50;1.40;;;11.80;72.80;;;;;;2261706;56;20932;-73
2022/11/12 00:45:37;;;;;;;2.70;1.37;;;11.80;72.90;;;;;;2268270;55;21001;-73
2022/11/12 00:48:04;;;;;;;3.17;1.50;;;11.80;72.90;;;;;;2297491;55;20981;-73
2022/11/12 00:50:30;;;;;;;2.78;1.58;;;11.80;73.00;;;;;;2262522;55;20944;-74
2022/11/12 00:52:57;;;;;;;2.83;1.60;;;11.70;72.90;;;;;;2268717;55;21148;-74
2022/11/12 00:55:23;;;;;;;3.20;1.60;;;11.70;73.00;;;;;;2270112;55;21001;-73
2022/11/12 00:57:49;;;;;;;3.12;1.70;;;11.70;73.10;;;;;;2262239;56;20933;-74
2022/11/12 01:00:17;;;;;;;2.47;1.33;;;11.70;73.20;;;;;;2261654;56;20961;-73
2022/11/12 01:02:43;;;;;;;3.35;1.80;;;11.70;73.30;;;;;;2261855;56;21414;-73
2022/11/12 01:05:12;;;;;;;3.28;1.70;;;11.70;73.30;;;;;;2348752;55;21557;-74
2022/11/12 01:07:39;;;;;;;2.80;1.55;;;11.70;73.40;;;;;;2261747;56;21508;-73
2022/11/12 01:10:10;;;;;;;5.30;2.40;;;11.70;73.30;;;;;;2262732;55;20973;-73
2022/11/12 01:12:39;;;;;;;3.42;2.05;;;11.70;73.40;;;;;;2261529;56;21004;-72
2022/11/12 01:15:07;;;;;;;4.70;2.30;;;11.80;73.50;;;;;;2454331;55;21096;-73
2022/11/12 01:17:36;;;;;;;3.35;2.20;;;11.70;73.50;;;;;;2303430;55;21845;-74
2022/11/12 01:20:03;;;;;;;3.15;1.73;;;11.80;73.60;;;;;;2491258;54;21763;-73
2022/11/12 01:22:30;;;;;;;2.85;1.60;;;11.80;73.70;;;;;;2261272;56;21004;-74
2022/11/12 01:24:57;;;;;;;3.53;2.03;;;11.80;73.70;;;;;;2411149;55;21029;-73
2022/11/12 01:27:24;;;;;;;2.92;1.50;;;11.80;73.60;;;;;;2489753;55;21108;-73
2022/11/12 01:29:50;;;;;;;2.53;1.55;;;11.80;73.60;;;;;;2381149;54;21580;-74
2022/11/12 01:32:21;;;;;;;2.83;1.37;;;11.80;73.60;;;;;;2261924;56;20964;-74
2022/11/12 01:34:52;;;;;;;2.80;1.45;;;11.80;73.50;;;;;;2286242;55;21005;-73
2022/11/12 01:37:19;;;;;;;3.37;1.65;;;11.80;73.60;;;;;;2411328;55;20977;-73
2022/11/12 01:39:46;;;;;;;3.10;1.67;;;11.80;73.60;;;;;;2261102;56;21005;-73
2022/11/12 01:42:12;;;;;;;2.90;1.90;;;11.80;73.50;;;;;;2267973;55;21103;-73
2022/11/12 01:44:40;;;;;;;3.70;2.15;;;11.80;73.50;;;;;;2261920;56;21433;-73
2022/11/12 01:47:18;;;;;;;3.20;1.80;;;11.80;73.60;;;;;;2299100;55;20976;-73
2022/11/12 01:49:56;;;;;;;2.90;1.55;;;11.80;73.40;;;;;;2262093;56;21007;-73
2022/11/12 01:52:27;;;;;;;5.00;1.92;;;11.80;73.50;;;;;;2430922;55;20941;-73
2022/11/12 01:54:57;;;;;;;3.58;1.30;;;11.80;73.50;;;;;;2262130;55;20941;-74
2022/11/12 01:57:26;;;;;;;2.70;1.45;;;11.80;73.40;;;;;;2274935;55;21037;-73
2022/11/12 01:59:56;;;;;;;2.78;1.10;;;11.80;73.40;;;;;;2285750;55;21697;-73
2022/11/12 02:02:23;;;;;;;2.45;1.00;;;11.80;73.30;;;;;;2322696;55;21013;-74
2022/11/12 02:04:49;;;;;;;2.50;1.20;;;11.80;73.30;;;;;;2261976;56;21008;-73
2022/11/12 02:07:15;;;;;;;2.05;1.10;;;11.80;73.20;;;;;;2395597;55;21353;-73
2022/11/12 02:09:42;;;;;;;2.50;1.23;;;11.80;73.10;;;;;;2262028;56;21000;-74
2022/11/12 02:13:56;;;;;;;4.15;1.55;;;11.80;73.10;;;;;;2272709;55;20956;-74
2022/11/12 02:16:42;;;;;;;2.25;1.20;;;11.80;73.10;;;;;;2268982;55;21508;-74
2022/11/12 02:19:25;;;;;;;1.95;0.93;;;11.80;72.70;;;;;;2280710;55;21556;-74
2022/11/12 02:21:52;;;;;;;2.58;1.25;;;11.80;72.80;;;;;;2261829;56;20953;-73
2022/11/12 02:24:31;;;;;;;2.67;1.50;;;11.70;73.00;;;;;;2279177;55;20999;-74
2022/11/12 02:26:58;;;;;;;2.90;1.70;;;11.70;72.70;;;;;;2361078;55;21015;-73
2022/11/12 02:29:24;;;;;;;3.12;1.62;;;11.70;72.90;;;;;;2471419;55;20948;-73
2022/11/12 02:32:39;;;;;;;3.03;1.60;;;11.70;72.90;;;;;;2285037;55;20975;-73
2022/11/12 02:35:07;;;;;;;2.58;1.30;;;11.70;72.60;;;;;;2357103;55;20968;-73
2022/11/12 02:37:33;;;;;;;2.70;1.27;;;11.70;72.80;;;;;;2261948;56;21824;-73
2022/11/12 02:40:00;;;;;;;2.78;1.37;;;11.70;72.80;;;;;;2266110;55;20925;-74
2022/11/12 02:42:26;;;;;;;2.45;1.10;;;11.70;72.80;;;;;;2261927;56;21048;-72
2022/11/12 02:44:57;;;;;;;4.80;1.27;;;11.60;72.70;;;;;;2275006;55;20928;-73
2022/11/12 02:47:24;;;;;;;2.95;1.40;;;11.60;72.80;;;;;;2261957;55;20957;-74
2022/11/12 02:49:51;;;;;;;2.78;1.30;;;11.60;72.80;;;;;;2423656;55;21009;-74
2022/11/12 02:52:17;;;;;;;2.45;1.25;;;11.60;72.80;;;;;;2261755;56;21037;-73
2022/11/12 02:54:44;;;;;;;3.58;1.77;;;11.60;72.80;;;;;;2267379;55;20952;-73
2022/11/12 02:57:11;;;;;;;2.97;1.45;;;11.50;72.90;;;;;;2262047;56;21020;-74
2022/11/12 02:59:39;;;;;;;2.60;1.30;;;11.60;73.10;;;;;;2349163;55;20940;-74
2022/11/12 03:02:05;;;;;;;3.90;1.80;;;11.60;73.20;;;;;;2262486;56;21064;-73
2022/11/12 03:04:32;;;;;;;2.90;1.50;;;11.60;73.20;;;;;;2269310;55;20932;-74
2022/11/12 03:06:58;;;;;;;3.10;1.80;;;11.60;73.30;;;;;;2262047;56;20961;-72
2022/11/12 03:09:25;;;;;;;2.95;1.30;;;11.50;73.20;;;;;;2391003;55;20987;-72
2022/11/12 03:11:51;;;;;;;2.80;1.30;;;11.60;73.40;;;;;;2262151;56;21025;-73
2022/11/12 03:14:18;;;;;;;3.20;1.20;;;11.60;73.40;;;;;;2273098;55;20971;-73
2022/11/12 03:16:45;;;;;;;2.87;1.37;;;11.60;73.30;;;;;;2406661;55;20965;-73
2022/11/12 03:19:11;;;;;;;2.65;1.30;;;11.60;73.10;;;;;;2296206;55;21855;-73
2022/11/12 03:21:37;;;;;;;2.50;1.17;;;11.50;73.00;;;;;;2261633;56;20945;-73
2022/11/12 03:24:05;;;;;;;3.58;1.15;;;11.50;72.90;;;;;;2429488;55;21068;-73
2022/11/12 03:26:31;;;;;;;2.42;1.30;;;11.60;73.00;;;;;;2261845;56;21390;-73
2022/11/12 03:29:03;;;;;;;2.50;1.30;;;11.50;72.90;;;;;;2262408;55;21543;-74
2022/11/12 03:31:29;;;;;;;2.85;1.27;;;11.50;72.80;;;;;;2261785;56;20964;-72
2022/11/12 03:33:56;;;;;;;2.75;1.45;;;11.50;72.80;;;;;;2320719;55;20961;-73
2022/11/12 03:36:22;;;;;;;2.47;1.27;;;11.50;72.80;;;;;;2262031;56;21056;-74
2022/11/12 03:38:49;;;;;;;3.47;1.70;;;11.50;72.90;;;;;;2284643;55;21012;-73
2022/11/12 03:41:15;;;;;;;2.90;1.45;;;11.50;72.90;;;;;;2261960;56;20937;-73
2022/11/12 03:43:42;;;;;;;3.58;1.70;;;11.50;72.90;;;;;;2262355;56;20941;-73
2022/11/12 03:46:09;;;;;;;3.87;1.60;;;11.50;72.90;;;;;;2261618;56;21013;-74
2022/11/12 03:48:36;;;;;;;2.70;1.30;;;11.40;72.80;;;;;;2308200;55;21737;-73
2022/11/12 03:51:03;;;;;;;5.65;1.40;;;11.50;72.80;;;;;;2262088;56;21654;-74
2022/11/12 03:53:30;;;;;;;2.17;1.02;;;11.50;72.80;;;;;;2270766;55;21386;-73
2022/11/12 03:55:56;;;;;;;2.17;1.15;;;11.40;72.70;;;;;;2261349;56;20976;-73
2022/11/12 03:58:24;;;;;;;3.20;1.25;;;11.40;72.80;;;;;;2370931;55;20913;-74
2022/11/12 04:00:51;;;;;;;2.92;1.30;;;11.40;72.90;;;;;;2261476;56;20980;-73
2022/11/12 04:03:18;;;;;;;2.05;1.00;;;11.40;72.90;;;;;;2261840;56;21103;-73
2022/11/12 04:08:36;;;;;;;2.50;1.37;;;11.40;72.90;;;;;;2267152;55;20952;-73
2022/11/12 04:11:13;;;;;;;10.05;1.50;;;11.40;73.00;;;;;;2262193;56;20988;-73
2022/11/12 04:13:40;;;;;;;5.07;1.20;;;11.40;73.00;;;;;;2262026;56;20989;-73
2022/11/12 04:21:50;;;;;;;2.28;1.00;;;11.30;72.50;;;;;;2490886;55;20993;-74
2022/11/12 04:27:32;;;;;;;3.95;1.10;;;11.30;72.20;;;;;;2261715;56;20959;-73
2022/11/12 04:30:18;;;;;;;4.78;1.25;;;11.30;72.40;;;;;;2490216;55;20982;-74
2022/11/12 04:32:55;;;;;;;2.20;1.00;;;11.30;72.50;;;;;;2340166;55;21870;-73
2022/11/12 04:35:23;;;;;;;2.12;0.85;;;11.20;72.40;;;;;;2331667;55;21815;-73
2022/11/12 04:37:50;;;;;;;1.90;0.80;;;11.20;72.50;;;;;;2261702;56;21450;-73
2022/11/12 04:45:52;;;;;;;2.60;1.33;;;11.20;72.40;;;;;;2490843;55;21766;-73
2022/11/12 04:48:21;;;;;;;2.30;1.00;;;11.10;72.40;;;;;;2262001;56;20957;-73
2022/11/12 04:50:49;;;;;;;2.78;1.27;;;11.10;72.50;;;;;;2406318;55;21085;-74
2022/11/12 04:53:16;;;;;;;2.28;1.10;;;11.10;72.60;;;;;;2333363;55;21503;-74
2022/11/12 04:55:42;;;;;;;3.40;1.95;;;11.10;72.60;;;;;;2265490;55;20941;-74
2022/11/12 04:58:09;;;;;;;3.00;1.40;;;11.10;72.70;;;;;;2262465;56;21019;-73
2022/11/12 05:00:35;;;;;;;2.08;1.00;;;11.10;72.70;;;;;;2287842;55;21558;-73
2022/11/12 05:03:02;;;;;;;2.60;1.25;;;11.10;72.70;;;;;;2262348;56;21763;-73
2022/11/12 05:05:29;;;;;;;2.60;1.17;;;11.10;72.60;;;;;;2490177;55;21740;-73
2022/11/12 05:08:00;;;;;;;2.50;1.15;;;11.10;72.60;;;;;;2317319;55;20965;-73
2022/11/12 05:10:27;;;;;;;2.15;1.00;;;11.10;72.60;;;;;;2272952;55;20952;-73
2022/11/12 05:12:53;;;;;;;2.25;1.12;;;11.10;72.60;;;;;;2261987;56;20960;-74
2022/11/12 05:15:20;;;;;;;3.08;1.10;;;11.10;72.50;;;;;;2261365;56;20949;-73
2022/11/12 05:17:47;;;;;;;2.83;1.48;;;11.10;72.50;;;;;;2261811;56;21016;-73
2022/11/12 05:20:13;;;;;;;2.60;1.20;;;11.00;72.40;;;;;;2427001;55;20960;-73
2022/11/12 05:22:40;;;;;;;3.33;1.50;;;11.00;72.50;;;;;;2318079;55;20945;-74
2022/11/12 05:25:09;;;;;;;2.20;1.02;;;11.00;72.60;;;;;;2262105;56;21001;-72
2022/11/12 05:27:36;;;;;;;2.28;1.10;;;11.00;72.70;;;;;;2361090;55;20968;-73
2022/11/12 05:30:04;;;;;;;2.70;1.25;;;11.00;72.70;;;;;;2470517;55;20965;-74
2022/11/12 05:32:30;;;;;;;2.33;1.17;;;11.00;72.50;;;;;;2490045;55;21062;-72
2022/11/12 05:34:57;;;;;;;3.62;1.42;;;11.00;72.40;;;;;;2299464;55;21080;-73
2022/11/12 05:37:23;;;;;;;14.00;7.43;;;11.00;72.40;;;;;;2351901;55;20969;-73
2022/11/12 05:39:49;;;;;;;11.30;6.12;;;11.00;72.40;;;;;;2379719;55;21020;-73
2022/11/12 05:42:16;;;;;;;9.52;5.00;;;11.00;72.30;;;;;;2261283;56;21420;-73
2022/11/12 05:44:42;;;;;;;6.20;3.33;;;10.90;72.20;;;;;;2361148;55;20977;-72
2022/11/12 05:47:09;;;;;;;5.82;2.75;;;10.90;72.20;;;;;;2256091;56;21730;-72
2022/11/12 05:49:35;;;;;;;4.30;2.12;;;10.90;72.30;;;;;;2354608;55;21817;-73
2022/11/12 05:52:02;;;;;;;3.72;2.00;;;10.90;72.20;;;;;;2262058;56;20977;-73
2022/11/12 05:54:28;;;;;;;3.15;1.80;;;10.90;72.20;;;;;;2261353;56;21788;-73
2022/11/12 05:56:55;;;;;;;3.62;1.75;;;10.90;72.20;;;;;;2262016;56;21358;-73
2022/11/12 05:59:23;;;;;;;3.35;1.67;;;10.90;72.30;;;;;;2261855;56;20948;-73
2022/11/12 06:01:49;;;;;;;2.95;1.23;;;10.90;72.30;;;;;;2262014;56;21434;-73
2022/11/12 06:04:16;;;;;;;4.15;1.67;;;10.80;72.10;;;;;;2261623;56;21363;-74
2022/11/12 06:06:44;;;;;;;4.85;2.22;;;10.80;72.20;;;;;;2261903;56;20993;-73
2022/11/12 06:09:10;;;;;;;4.40;2.10;;;10.80;72.30;;;;;;2489880;55;21009;-73
2022/11/12 06:11:36;;;;;;;4.18;2.35;;;10.80;72.40;;;;;;2490753;55;21013;-73
2022/11/12 06:14:02;;;;;;;3.75;1.60;;;10.80;72.40;;;;;;2262170;56;20976;-73
2022/11/12 06:16:29;;;;;;;3.75;1.70;;;10.80;72.50;;;;;;2489757;55;20970;-73
2022/11/12 06:18:55;;;;;;;3.30;1.55;;;10.80;72.50;;;;;;2261949;56;21887;-73
2022/11/12 06:21:26;;;;;;;3.03;1.50;;;10.80;72.40;;;;;;2261201;56;20973;-74
2022/11/12 06:23:54;;;;;;;3.67;1.70;;;10.80;72.40;;;;;;2261350;56;21013;-73
2022/11/12 06:26:21;;;;;;;3.35;1.52;;;10.80;72.60;;;;;;2301666;55;21013;-74
2022/11/12 06:28:50;;;;;;;3.42;1.50;;;10.80;72.60;;;;;;2490481;55;20941;-73
2022/11/12 06:31:17;;;;;;;4.72;2.12;;;10.80;72.60;;;;;;2489916;55;20976;-73
2022/11/12 06:33:43;;;;;;;3.70;1.60;;;10.80;72.50;;;;;;2260764;56;21753;-73
2022/11/12 06:36:12;;;;;;;3.72;1.77;;;10.80;72.50;;;;;;2261517;56;20948;-72
2022/11/12 06:38:41;;;;;;;2.87;1.33;;;10.80;72.40;;;;;;2489835;55;21016;-74
2022/11/12 06:41:09;;;;;;;3.80;1.40;;;10.80;72.30;;;;;;2490321;55;21002;-73
2022/11/12 06:43:35;;;;;;;3.00;1.25;;;10.80;72.40;;;;;;2294332;55;21029;-73
2022/11/12 06:46:02;;;;;;;3.53;1.58;;;10.70;72.20;;;;;;2490515;55;20945;-73
2022/11/12 06:48:29;;;;;;;3.87;1.80;;;10.70;72.20;;;;;;2261759;56;21941;-72
2022/11/12 06:50:56;;;;;;;4.03;1.90;;;10.70;72.10;;;;;;2265040;56;21750;-73
2022/11/12 06:53:24;;;;;;;4.80;2.40;;;10.70;72.20;;;;;;2263192;56;21837;-73
2022/11/12 06:55:50;;;;;;;3.80;1.52;;;10.70;72.40;;;;;;2263199;56;20924;-73
2022/11/12 06:58:18;;;;;;;4.65;2.03;;;10.70;72.40;;;;;;2261006;56;21104;-74
2022/11/12 07:00:44;;;;;;;4.43;1.92;;;10.70;72.40;;;;;;2261745;56;20989;-73
2022/11/12 07:03:12;;;;;;;3.97;1.95;;;10.60;72.50;;;;;;2285084;55;21008;-72
2022/11/12 07:05:39;;;;;;;4.07;1.90;;;10.70;72.60;;;;;;2261439;56;21477;-74
2022/11/12 07:08:05;;;;;;;3.62;1.87;;;10.70;72.60;;;;;;2261862;56;21072;-73
2022/11/12 07:10:32;;;;;;;5.20;1.95;;;10.70;72.60;;;;;;2264936;56;21445;-73
2022/11/12 07:12:58;;;;;;;3.65;1.70;;;10.70;72.70;;;;;;2260793;56;21695;-73
2022/11/12 07:15:25;;;;;;;4.12;2.12;;;10.70;72.70;;;;;;2261085;56;21060;-73
2022/11/12 07:17:52;;;;;;;4.18;2.10;;;10.70;72.70;;;;;;2261812;56;20957;-73
2022/11/12 07:20:22;;;;;;;4.80;2.33;;;10.70;72.70;;;;;;2257927;56;20933;-72
2022/11/12 07:22:49;;;;;;;3.95;2.05;;;10.70;72.70;;;;;;2261975;56;21013;-73
2022/11/12 07:25:17;;;;;;;4.18;2.17;;;10.70;72.70;;;;;;2263815;55;21453;-73
2022/11/12 07:27:43;;;;;;;4.10;2.33;;;10.70;72.70;;;;;;2261892;56;21013;-73
2022/11/12 07:30:10;;;;;;;5.20;2.72;;;10.70;72.80;;;;;;2261553;56;20933;-74
2022/11/12 07:32:37;;;;;;;4.05;2.00;;;10.70;72.80;;;;;;2307040;55;21013;-73
2022/11/12 07:35:16;;;;;;;5.37;2.47;;;10.70;72.80;;;;;;2262046;56;20941;-73
2022/11/12 07:37:43;;;;;;;4.35;2.08;;;10.70;72.80;;;;;;2259028;56;20933;-73
2022/11/12 07:40:10;;;;;;;4.35;2.17;;;10.70;72.90;;;;;;2261924;56;21012;-73
2022/11/12 07:42:37;;;;;;;6.95;2.83;;;10.70;73.00;;;;;;2243517;56;21900;-73
2022/11/12 07:45:04;;;;;;;4.12;2.03;;;10.70;73.00;;;;;;2261779;56;21025;-74
2022/11/12 07:47:30;;;;;;;4.30;2.22;;;10.70;72.90;;;;;;2412122;55;20968;-73
2022/11/12 07:49:57;;;;;;;6.60;2.60;;;10.80;73.00;;;;;;2325064;55;21009;-73
2022/11/12 07:52:24;;;;;;;4.32;2.12;;;10.80;72.90;;;;;;2260130;56;20963;-73
2022/11/12 07:54:50;;;;;;;3.50;1.73;;;10.80;72.80;;;;;;2260699;56;21448;-73
2022/11/12 07:57:17;;;;;;;4.07;1.80;;;10.80;72.70;;;;;;2481748;54;20964;-74
2022/11/12 07:59:43;;;;;;;4.72;2.22;;;10.80;72.70;;;;;;2261960;56;20961;-75
2022/11/12 08:02:11;;;;;;;4.10;2.30;;;10.80;72.70;;;;;;2281585;55;20945;-74
2022/11/12 08:04:38;;;;;;;4.47;2.08;;;10.80;72.50;;;;;;2262497;55;21410;-75
2022/11/12 08:07:05;;;;;;;4.90;2.37;;;10.70;72.30;;;;;;2260848;56;20948;-72
2022/11/12 08:09:31;;;;;;;4.12;2.10;;;10.70;72.30;;;;;;2260988;56;21470;-74
2022/11/12 08:12:00;;;;;;;4.00;2.10;;;10.70;72.30;;;;;;2490114;55;21064;-75
2022/11/12 08:14:32;;;;;;;6.68;3.17;;;10.80;72.40;;;;;;2265892;56;21032;-74
2022/11/12 08:16:58;;;;;;;8.35;4.65;;;10.70;72.30;;;;;;2261959;56;20967;-73
2022/11/12 08:19:24;;;;;;;10.57;5.32;;;10.70;72.30;;;;;;2263895;56;20969;-73
2022/11/12 08:21:50;;;;;;;11.50;5.40;;;10.70;72.30;;;;;;2261933;56;21857;-73
2022/11/12 08:24:17;;;;;;;9.18;4.55;;;10.70;72.40;;;;;;2262377;56;20921;-75
2022/11/12 08:26:43;;;;;;;9.32;4.10;;;10.70;72.40;;;;;;2322054;55;20937;-72
2022/11/12 08:29:10;;;;;;;6.90;3.83;;;10.70;72.60;;;;;;2261326;56;20989;-74
2022/11/12 08:31:38;;;;;;;5.15;2.80;;;10.70;72.60;;;;;;2402166;55;20941;-74
2022/11/12 08:34:10;;;;;;;4.95;2.53;;;10.70;72.80;;;;;;2488214;55;21510;-75
2022/11/12 08:36:39;;;;;;;5.12;2.35;;;10.70;72.80;;;;;;2261504;56;21032;-74
2022/11/12 08:39:06;;;;;;;4.65;2.53;;;10.70;72.70;;;;;;2415858;55;20945;-76
2022/11/12 08:41:32;;;;;;;4.47;2.37;;;10.70;72.80;;;;;;2264270;56;21068;-74
2022/11/12 08:43:58;;;;;;;3.70;1.60;;;10.70;72.80;;;;;;2422770;55;21077;-74
2022/11/12 08:46:26;;;;;;;4.22;2.20;;;10.70;72.80;;;;;;2264325;56;21970;-73
2022/11/12 08:48:53;;;;;;;4.95;2.28;;;10.70;72.90;;;;;;2471281;55;20929;-74
2022/11/12 08:51:22;;;;;;;4.35;2.20;;;10.80;72.90;;;;;;2283191;55;21401;-76
2022/11/12 08:53:48;;;;;;;4.93;2.40;;;10.80;72.80;;;;;;2261661;56;21476;-73
2022/11/12 08:56:18;;;;;;;5.03;2.53;;;10.70;72.70;;;;;;2265888;55;20933;-73
2022/11/12 08:58:44;;;;;;;4.12;2.30;;;10.80;72.80;;;;;;2259586;55;22263;-74
2022/11/12 09:01:10;;;;;;;4.07;2.17;;;10.80;72.80;;;;;;2261317;56;20957;-72
2022/11/12 09:03:37;;;;;;;4.18;1.80;;;10.80;72.80;;;;;;2261255;56;20996;-74
2022/11/12 09:06:04;;;;;;;5.82;2.30;;;10.80;72.60;;;;;;2261058;56;21786;-75
2022/11/12 09:08:49;;;;;;;4.78;2.12;;;10.80;72.70;;;;;;2465287;55;20980;-76
2022/11/12 09:11:18;;;;;;;5.03;2.47;;;10.80;72.50;;;;;;2264167;56;20949;-75
2022/11/12 09:13:44;;;;;;;4.75;2.40;;;10.80;72.90;;;;;;2261587;56;21084;-73
2022/11/12 09:16:10;;;;;;;5.78;3.08;;;10.80;73.10;;;;;;2261505;56;20985;-75
2022/11/12 09:18:37;;;;;;;5.00;2.72;;;10.90;73.20;;;;;;2489637;55;21016;-74
2022/11/12 09:21:05;;;;;;;4.57;2.17;;;10.90;73.20;;;;;;2296267;55;21013;-72
2022/11/12 09:23:33;;;;;;;5.32;2.45;;;10.90;73.30;;;;;;2489935;55;20992;-74
2022/11/12 09:25:59;;;;;;;5.03;2.78;;;10.90;73.40;;;;;;2261089;56;21052;-73
2022/11/12 09:28:25;;;;;;;5.87;3.22;;;10.90;73.50;;;;;;2260562;56;21063;-72
2022/11/12 09:30:52;;;;;;;7.50;4.15;;;10.90;73.40;;;;;;2261417;56;21703;-76
2022/11/12 09:33:28;;;;;;;7.72;4.75;;;10.90;73.40;;;;;;2264655;55;20953;-75
2022/11/12 09:35:54;;;;;;;6.45;3.80;;;11.00;73.50;;;;;;2260773;56;20972;-74
2022/11/12 09:38:21;;;;;;;5.90;3.47;;;11.00;73.50;;;;;;2261202;56;20997;-72
2022/11/12 09:41:33;;;;;;;5.75;3.42;;;11.10;73.50;;;;;;2264378;56;21433;-71
2022/11/12 09:44:01;;;;;;;6.28;3.05;;;11.10;72.70;;;;;;2261536;56;20964;-73
2022/11/12 09:49:06;;;;;;;4.70;2.33;;;11.10;73.10;;;;;;2260543;56;21461;-74
2022/11/12 09:51:34;;;;;;;4.40;1.95;;;11.10;73.20;;;;;;2260982;56;20976;-73
2022/11/12 09:54:40;;;;;;;4.22;2.10;;;11.10;73.30;;;;;;2489926;55;21339;-74
2022/11/12 09:57:12;;;;;;;5.25;2.55;;;11.10;73.10;;;;;;2261143;56;21337;-73
2022/11/12 09:59:40;;;;;;;4.78;2.47;;;11.20;73.30;;;;;;2261412;56;21454;-75
2022/11/12 10:02:22;;;;;;;4.87;2.80;;;11.20;73.30;;;;;;2490017;55;21766;-76
2022/11/12 10:05:27;;;;;;;4.53;2.53;;;11.20;73.10;;;;;;2261313;56;21411;-72
2022/11/12 10:10:31;;;;;;;5.32;2.97;;;11.20;72.90;;;;;;2265166;56;20940;-75
2022/11/12 10:13:24;;;;;;;4.07;2.03;;;11.20;72.50;;;;;;2490184;55;21000;-74
2022/11/12 10:22:32;;;;;;;3.97;2.12;;;11.30;72.90;;;;;;2490384;55;21396;-77
2022/11/12 10:25:06;;;;;;;3.40;1.58;;;11.20;72.50;;;;;;2260716;56;21904;-72
2022/11/12 10:27:37;;;;;;;4.22;2.40;;;11.30;73.20;;;;;;2319279;55;20965;-77
2022/11/12 10:30:05;;;;;;;5.40;2.87;;;11.30;73.30;;;;;;2489535;55;20989;-77
2022/11/12 10:32:31;;;;;;;4.85;2.50;;;11.30;73.50;;;;;;2260672;56;22445;-72
2022/11/12 10:34:58;;;;;;;4.78;2.87;;;11.30;73.60;;;;;;2261302;56;21425;-73
2022/11/12 10:37:58;;;;;;;6.15;3.37;;;11.30;73.70;;;;;;2374626;55;20985;-72
2022/11/12 10:40:37;;;;;;;3.97;2.37;;;11.30;73.30;;;;;;2260367;56;21008;-74
2022/11/12 10:44:57;;;;;;;4.62;2.60;;;11.40;73.70;;;;;;2304903;55;21604;-73
2022/11/12 10:47:31;;;;;;;4.65;2.72;;;11.40;73.00;;;;;;2260204;56;21047;-74
2022/11/12 10:50:36;;;;;;;5.10;3.08;;;11.40;73.70;;;;;;2489716;55;20941;-75
2022/11/12 10:53:04;;;;;;;4.78;2.75;;;11.50;73.30;;;;;;2372076;55;21049;-76
2022/11/12 10:55:33;;;;;;;3.87;2.15;;;11.50;73.80;;;;;;2317227;55;21016;-76
2022/11/12 10:58:12;;;;;;;3.53;1.95;;;11.50;73.80;;;;;;2260041;56;21276;-72
2022/11/12 11:01:00;;;;;;;3.85;1.87;;;11.60;73.70;;;;;;2438385;55;21276;-76
2022/11/12 11:03:34;;;;;;;4.15;2.20;;;11.60;73.50;;;;;;2260515;56;20952;-74
2022/11/12 11:06:05;;;;;;;3.78;2.10;;;11.60;73.60;;;;;;2313762;55;20945;-76
2022/11/12 11:08:36;;;;;;;4.28;2.37;;;11.60;73.70;;;;;;2260982;56;20961;-78
2022/11/12 11:11:26;;;;;;;4.15;2.28;;;11.70;73.70;;;;;;2277049;55;20933;-77
2022/11/12 11:13:57;;;;;;;4.82;2.37;;;11.70;73.20;;;;;;2261660;56;21004;-72
2022/11/12 11:16:27;;;;;;;4.65;2.35;;;11.70;73.40;;;;;;2466130;55;20994;-73
2022/11/12 11:19:04;;;;;;;4.80;2.55;;;11.70;73.40;;;;;;2410908;55;21036;-74
2022/11/12 11:22:03;;;;;;;12.25;5.43;;;11.80;73.30;;;;;;2489187;55;20949;-74
2022/11/12 11:28:19;;;;;;;9.65;4.87;;;11.80;73.20;;;;;;2353849;55;20960;-73
2022/11/12 11:31:01;;;;;;;8.27;4.43;;;11.80;72.70;;;;;;2390193;55;21489;-74
2022/11/12 11:34:11;;;;;;;6.70;3.83;;;11.80;73.20;;;;;;2261220;56;21399;-74
2022/11/12 11:37:01;;;;;;;6.25;3.28;;;11.90;73.10;;;;;;2489569;55;21597;-76
2022/11/12 11:40:05;;;;;;;5.97;3.35;;;11.90;73.40;;;;;;2488746;55;21044;-74
2022/11/12 11:50:50;;;;;;;6.87;2.85;;;11.90;73.40;;;;;;2489639;55;20968;-73
2022/11/12 11:53:26;;;;;;;4.47;2.15;;;11.90;73.10;;;;;;2261160;56;20909;-77
2022/11/12 11:56:02;;;;;;;4.12;2.22;;;12.00;73.30;;;;;;2489891;55;21346;-75
2022/11/12 11:59:10;;;;;;;5.40;2.70;;;12.00;73.40;;;;;;2260452;56;21001;-76
2022/11/12 12:01:53;;;;;;;4.97;2.78;;;12.00;73.20;;;;;;2443011;55;21012;-73
2022/11/12 12:06:16;;;;;;;5.22;3.00;;;12.00;73.60;;;;;;2489388;55;20981;-75
2022/11/12 12:10:23;;;;;;;4.25;2.47;;;12.10;73.00;;;;;;2457274;55;21659;-74
2022/11/12 12:16:12;;;;;;;5.43;3.03;;;12.10;72.80;;;;;;2261553;56;21028;-76
2022/11/12 12:19:02;;;;;;;4.90;2.47;;;12.10;72.60;;;;;;2261013;56;21005;-76
2022/11/12 12:21:30;;;;;;;5.20;2.90;;;12.10;73.00;;;;;;2369457;55;21378;-76
2022/11/12 12:25:49;;;;;;;5.40;3.10;;;12.10;73.20;;;;;;2260773;56;21257;-77
2022/11/12 12:28:38;;;;;;;4.75;2.80;;;12.10;72.60;;;;;;2277724;55;21683;-73
2022/11/12 12:31:09;;;;;;;7.45;3.72;;;12.10;72.90;;;;;;2308430;55;21425;-75
2022/11/12 12:35:23;;;;;;;6.13;3.60;;;12.10;73.10;;;;;;2364306;55;20976;-76
2022/11/12 12:38:14;;;;;;;5.10;2.83;;;12.10;72.30;;;;;;2489982;55;20985;-76
2022/11/12 12:40:43;;;;;;;5.37;3.08;;;12.10;72.80;;;;;;2261185;56;21540;-75
2022/11/12 12:43:28;;;;;;;6.82;3.85;;;12.10;73.00;;;;;;2463276;55;21537;-75
2022/11/12 12:45:56;;;;;;;6.25;4.07;;;12.10;73.00;;;;;;2260895;56;20957;-74
2022/11/12 12:48:37;;;;;;;8.27;4.20;;;12.10;72.90;;;;;;2469705;55;20981;-78
2022/11/12 12:51:03;;;;;;;7.47;4.28;;;12.10;72.70;;;;;;2261390;56;21525;-74
2022/11/12 12:53:34;;;;;;;7.07;4.07;;;12.10;72.90;;;;;;2379847;55;21681;-74
2022/11/12 12:56:04;;;;;;;7.78;4.28;;;12.10;72.80;;;;;;2261416;56;20959;-73
2022/11/12 12:58:54;;;;;;;6.80;3.55;;;12.10;72.80;;;;;;2298894;55;21560;-71
2022/11/12 13:01:32;;;;;;;6.70;3.95;;;12.10;72.80;;;;;;2261264;56;21009;-76
2022/11/12 13:04:10;;;;;;;7.12;3.78;;;12.00;72.50;;;;;;2432367;55;20968;-74
2022/11/12 13:06:38;;;;;;;7.37;4.20;;;12.00;72.40;;;;;;2489063;55;20941;-72
2022/11/12 13:09:06;;;;;;;6.20;3.55;;;12.00;72.60;;;;;;2277308;55;21339;-76
2022/11/12 13:12:51;;;;;;;6.18;3.60;;;12.00;72.60;;;;;;2269336;55;22177;-77
2022/11/12 13:15:38;;;;;;;6.35;3.53;;;12.00;72.00;;;;;;2340560;55;20960;-73
2022/11/12 13:18:07;;;;;;;6.00;3.85;;;12.00;72.40;;;;;;2490082;55;21438;-73
2022/11/12 13:20:36;;;;;;;6.37;4.03;;;12.00;72.40;;;;;;2489677;55;20985;-75
2022/11/12 13:23:06;;;;;;;6.15;3.90;;;12.00;72.60;;;;;;2261749;56;25264;-76
2022/11/12 13:25:33;;;;;;;6.62;4.25;;;11.90;72.40;;;;;;2260888;56;20960;-74
2022/11/12 13:28:07;;;;;;;8.02;4.55;;;11.90;72.40;;;;;;2260768;56;20997;-76
2022/11/12 13:30:55;;;;;;;8.20;4.87;;;11.90;72.30;;;;;;2489698;55;21080;-77
2022/11/12 13:33:28;;;;;;;6.60;4.05;;;11.90;72.20;;;;;;2489476;55;21446;-77
2022/11/12 13:36:14;;;;;;;;;;;11.90;72.50;;;;;;2428135;55;20999;-77
2022/11/12 13:38:40;;;;;;;5.65;3.42;;;11.90;71.90;;;;;;2327963;55;20427;-73
2022/11/12 13:41:15;;;;;;;5.93;3.65;;;11.80;72.40;;;;;;2489285;55;20933;-78
2022/11/12 13:43:42;;;;;;;7.28;4.15;;;11.80;72.30;;;;;;2489123;55;21016;-75
2022/11/12 13:46:31;;;;;;;8.60;5.35;;;11.80;72.60;;;;;;2260802;55;21565;-74
2022/11/12 13:49:01;;;;;;;6.93;4.05;;;11.80;72.10;;;;;;2260448;56;21560;-77
2022/11/12 13:51:40;;;;;;;7.37;4.10;;;11.80;72.40;;;;;;2260328;56;20936;-77
2022/11/12 13:54:33;;;;;;;8.07;4.62;;;11.80;72.40;;;;;;2261035;56;21371;-73
2022/11/12 13:57:23;;;;;;;;;;;11.80;72.30;;;;;;2373380;55;20972;-74
2022/11/12 14:00:25;;;;;;;6.15;3.15;;;11.80;72.00;;;;;;2261357;56;20061;-75
2022/11/12 14:02:56;;;;;;;6.05;3.47;;;11.80;72.20;;;;;;2261270;56;20977;-75
2022/11/12 14:05:29;;;;;;;6.50;3.97;;;11.70;72.30;;;;;;2260142;55;20932;-74